Time;durP1;ratioP1;P1;durP2;ratioP2;P2;SDS_P1;SDS_P2;PMS_P1;PMS_P2;Temp;Humidity;BMP_temperature;BMP_pressure;BME280_temperature;BME280_humidity;BME280_pressure;Samples;Min_cycle;Max_cycle;Signal;HPM_P1;HPM_P2
2023/01/01 00:00:58;;;;;;;125.20;86.77;;;;;;;11.64;99.44;98408.25;5091427;28;20231;-76
2023/01/01 00:03:26;;;;;;;95.77;65.47;;;;;;;11.63;99.52;98409.22;5102424;22;20230;-78
2023/01/01 00:05:53;;;;;;;129.93;85.80;;;;;;;11.59;99.77;98416.53;5051215;28;20204;-77
2023/01/01 00:08:19;;;;;;;163.17;109.77;;;;;;;11.55;100.00;98416.81;5051040;28;20215;-77
2023/01/01 00:10:45;;;;;;;191.90;127.97;;;;;;;11.54;99.98;98415.97;5050865;28;20300;-77
2023/01/01 00:13:13;;;;;;;161.77;109.53;;;;;;;11.52;100.00;98424.94;5051019;28;20209;-77
2023/01/01 00:15:39;;;;;;;132.30;91.37;;;;;;;11.43;100.00;98425.59;5051087;28;20213;-77
2023/01/01 00:18:06;;;;;;;117.93;81.10;;;;;;;11.43;100.00;98426.41;5051064;28;20217;-77
2023/01/01 00:20:34;;;;;;;103.23;73.07;;;;;;;11.43;100.00;98426.41;5050901;28;20286;-77
2023/01/01 00:23:00;;;;;;;116.33;78.60;;;;;;;11.41;100.00;98427.47;5051152;28;20211;-77
2023/01/01 00:25:27;;;;;;;93.60;63.93;;;;;;;11.45;100.00;98424.53;5051144;28;20205;-77
2023/01/01 00:27:54;;;;;;;95.63;66.63;;;;;;;11.43;100.00;98422.94;5051005;28;20713;-77
2023/01/01 00:30:21;;;;;;;93.57;63.17;;;;;;;11.42;100.00;98422.09;5050563;28;20208;-77
2023/01/01 00:32:47;;;;;;;69.83;51.93;;;;;;;11.48;100.00;98418.16;5050900;28;20217;-77
2023/01/01 00:35:14;;;;;;;51.20;36.90;;;;;;;11.52;100.00;98414.38;5051025;28;20243;-77
2023/01/01 00:37:42;;;;;;;36.77;28.27;;;;;;;11.67;99.60;98410.72;5051289;28;20225;-77
2023/01/01 00:40:09;;;;;;;34.10;24.70;;;;;;;11.73;98.56;98407.66;5050739;28;20294;-77
2023/01/01 00:42:39;;;;;;;26.23;20.73;;;;;;;11.77;97.73;98412.59;5050963;28;20327;-77
2023/01/01 00:45:06;;;;;;;27.50;20.77;;;;;;;11.81;97.08;98410.59;5050992;28;20319;-77
2023/01/01 00:47:33;;;;;;;26.67;18.83;;;;;;;11.84;96.89;98410.38;5051027;28;20208;-77
2023/01/01 00:49:59;;;;;;;21.53;17.07;;;;;;;11.90;96.12;98409.94;5050807;28;20212;-77
2023/01/01 00:52:26;;;;;;;18.77;13.73;;;;;;;11.92;95.89;98416.00;5051020;28;20214;-77
2023/01/01 00:54:54;;;;;;;20.60;14.73;;;;;;;12.01;95.06;98410.03;5050645;28;20237;-77
2023/01/01 00:57:20;;;;;;;18.90;14.03;;;;;;;11.98;94.73;98410.25;5050616;28;20619;-77
2023/01/01 00:59:46;;;;;;;15.73;12.00;;;;;;;11.93;95.34;98420.34;5053545;28;20212;-77
2023/01/01 01:02:13;;;;;;;14.90;12.13;;;;;;;11.78;96.08;98424.88;5054761;28;20240;-77
2023/01/01 01:04:39;;;;;;;14.63;10.17;;;;;;;11.85;95.96;98415.56;5054541;28;20241;-77
2023/01/01 01:07:06;;;;;;;13.70;10.63;;;;;;;11.86;95.44;98413.78;5054539;28;20217;-77
2023/01/01 01:09:33;;;;;;;10.97;8.47;;;;;;;11.86;95.56;98409.31;5054139;28;20230;-77
2023/01/01 01:12:00;;;;;;;11.17;7.63;;;;;;;11.84;95.28;98405.06;5054282;28;20255;-77
2023/01/01 01:14:27;;;;;;;9.40;6.83;;;;;;;11.98;94.83;98404.97;5054595;28;20320;-77
2023/01/01 01:16:54;;;;;;;8.43;6.43;;;;;;;12.08;93.39;98396.25;5054512;28;20231;-77
2023/01/01 01:19:22;;;;;;;9.13;6.27;;;;;;;12.09;93.53;98407.69;5054031;28;20242;-77
2023/01/01 01:21:50;;;;;;;8.77;7.17;;;;;;;12.07;93.18;98409.59;5054246;28;20266;-77
2023/01/01 01:24:16;;;;;;;8.97;6.80;;;;;;;12.04;93.64;98412.47;5053981;28;20418;-77
2023/01/01 01:26:43;;;;;;;8.73;6.70;;;;;;;11.98;94.03;98418.22;5054113;28;20216;-77
2023/01/01 01:29:11;;;;;;;9.50;7.30;;;;;;;11.98;94.04;98412.91;5053784;28;20218;-78
2023/01/01 01:31:37;;;;;;;9.33;7.00;;;;;;;11.91;94.52;98412.47;5054104;28;20207;-78
2023/01/01 01:34:04;;;;;;;10.17;7.43;;;;;;;11.83;95.03;98409.53;5053983;28;20235;-77
2023/01/01 01:36:30;;;;;;;9.07;7.00;;;;;;;11.88;94.34;98417.16;5054132;28;20213;-77
2023/01/01 01:38:57;;;;;;;10.70;7.73;;;;;;;11.96;94.25;98420.09;5053541;28;20237;-77
2023/01/01 01:41:26;;;;;;;11.07;8.00;;;;;;;11.93;93.44;98409.72;5053988;28;20242;-77
2023/01/01 01:43:56;;;;;;;13.30;9.80;;;;;;;11.86;94.19;98416.41;5053936;28;20238;-77
2023/01/01 01:46:29;;;;;;;18.30;14.10;;;;;;;11.77;94.66;98417.03;5053873;28;20270;-77
2023/01/01 01:48:59;;;;;;;20.73;15.07;;;;;;;11.68;95.44;98425.63;5053506;28;20215;-77
2023/01/01 01:51:31;;;;;;;22.03;16.23;;;;;;;11.58;96.21;98433.38;5053677;28;20214;-77
2023/01/01 01:54:02;;;;;;;26.67;17.43;;;;;;;11.52;96.43;98441.69;5053874;28;20236;-77
2023/01/01 01:56:35;;;;;;;26.87;18.93;;;;;;;11.42;97.30;98439.75;5053524;28;20660;-77
2023/01/01 01:59:02;;;;;;;31.17;22.20;;;;;;;11.36;97.80;98441.03;5053058;28;20230;-77
2023/01/01 02:01:30;;;;;;;25.83;19.47;;;;;;;11.30;98.01;98444.09;5053453;28;20238;-77
2023/01/01 02:03:59;;;;;;;30.40;21.00;;;;;;;11.28;98.34;98442.50;5053175;28;20235;-77
2023/01/01 02:06:27;;;;;;;31.27;22.37;;;;;;;11.25;98.33;98450.66;5053578;28;20204;-77
2023/01/01 02:08:56;;;;;;;30.10;21.27;;;;;;;11.18;99.15;98446.72;5053136;28;20615;-77
2023/01/01 02:11:22;;;;;;;31.83;21.73;;;;;;;11.13;99.41;98443.53;5053459;28;20212;-77
2023/01/01 02:13:49;;;;;;;32.70;23.23;;;;;;;11.12;99.78;98447.13;5053215;28;20249;-77
2023/01/01 02:16:22;;;;;;;26.37;19.73;;;;;;;11.15;99.80;98444.25;5053428;28;20219;-77
2023/01/01 02:18:58;;;;;;;31.20;20.03;;;;;;;11.25;99.12;98434.78;5053197;28;20210;-77
2023/01/01 02:21:29;;;;;;;20.07;14.67;;;;;;;11.32;98.72;98441.34;5053435;28;20242;-77
2023/01/01 02:24:22;;;;;;;21.60;14.77;;;;;;;11.37;97.97;98437.41;5053444;28;20236;-78
2023/01/01 02:26:58;;;;;;;23.40;15.90;;;;;;;11.37;97.60;98441.88;5053147;28;20208;-77
2023/01/01 02:29:38;;;;;;;26.37;19.17;;;;;;;11.37;97.51;98436.59;5053035;28;20215;-77
2023/01/01 02:32:09;;;;;;;31.97;24.10;;;;;;;11.27;97.99;98436.38;5053152;28;20217;-77
2023/01/01 02:34:40;;;;;;;41.43;30.33;;;;;;;11.24;97.92;98440.97;5052945;28;20232;-77
2023/01/01 02:37:10;;;;;;;45.43;31.03;;;;;;;11.18;98.38;98446.72;5052902;28;20211;-77
2023/01/01 02:39:42;;;;;;;39.33;27.20;;;;;;;11.07;99.09;98449.22;5052516;28;20215;-77
2023/01/01 02:42:08;;;;;;;36.07;24.63;;;;;;;10.98;99.81;98450.66;5052641;28;20234;-77
2023/01/01 02:44:40;;;;;;;38.17;27.40;;;;;;;10.90;100.00;98454.75;5052672;28;20228;-77
2023/01/01 02:47:10;;;;;;;34.80;25.27;;;;;;;10.87;100.00;98457.59;5052956;28;20215;-77
2023/01/01 02:49:39;;;;;;;35.63;26.67;;;;;;;10.80;100.00;98472.16;5052237;28;20210;-77
2023/01/01 02:52:11;;;;;;;29.53;21.77;;;;;;;10.79;100.00;98460.75;5052376;28;20669;-77
2023/01/01 02:54:46;;;;;;;28.37;20.23;;;;;;;10.71;100.00;98464.84;5052712;28;20229;-77
2023/01/01 02:57:23;;;;;;;33.37;23.97;;;;;;;10.63;100.00;98465.31;5052642;28;20216;-77
2023/01/01 03:00:26;;;;;;;35.30;24.57;;;;;;;10.64;100.00;98477.59;5052116;28;20209;-77
2023/01/01 03:03:15;;;;;;;33.73;24.37;;;;;;;10.49;100.00;98473.28;5052568;28;20713;-77
2023/01/01 03:08:45;;;;;;;29.87;20.10;;;;;;;10.34;100.00;98476.88;5052107;28;20268;-77
2023/01/01 03:11:15;;;;;;;26.00;19.50;;;;;;;10.29;100.00;98472.84;5052056;28;20350;-78
2023/01/01 03:13:47;;;;;;;24.07;17.87;;;;;;;10.27;100.00;98477.38;5052036;28;20226;-77
2023/01/01 03:16:19;;;;;;;27.47;18.87;;;;;;;10.22;100.00;98479.47;5052202;28;20237;-77
2023/01/01 03:19:09;;;;;;;25.97;18.53;;;;;;;10.25;100.00;98484.53;5051881;28;20206;-77
2023/01/01 03:21:42;;;;;;;25.30;15.70;;;;;;;10.28;100.00;98479.91;5051391;28;20666;-77
2023/01/01 03:24:13;;;;;;;22.17;15.77;;;;;;;10.27;100.00;98472.09;5052010;28;20666;-77
2023/01/01 03:26:42;;;;;;;22.70;15.80;;;;;;;10.28;100.00;98479.91;5051881;28;20225;-78
2023/01/01 03:29:12;;;;;;;23.50;15.03;;;;;;;10.36;100.00;98484.72;5051600;28;20309;-77
2023/01/01 03:31:44;;;;;;;22.77;16.97;;;;;;;10.66;100.00;98490.72;5051970;28;20211;-78
2023/01/01 03:34:17;;;;;;;22.07;16.47;;;;;;;10.59;100.00;98500.81;5052056;28;20582;-78
2023/01/01 03:36:46;;;;;;;24.60;18.43;;;;;;;10.44;100.00;98496.50;5051773;28;20208;-77
2023/01/01 03:39:17;;;;;;;24.03;17.20;;;;;;;10.30;100.00;98504.47;5051408;28;20309;-77
2023/01/01 03:41:49;;;;;;;22.03;14.63;;;;;;;10.21;100.00;98496.25;5051596;28;20202;-77
2023/01/01 03:44:23;;;;;;;17.63;12.37;;;;;;;10.29;100.00;98496.63;5051757;28;20224;-77
2023/01/01 03:46:51;;;;;;;17.30;13.07;;;;;;;10.34;100.00;98499.84;5051710;28;20235;-77
2023/01/01 03:49:19;;;;;;;24.90;15.27;;;;;;;10.37;100.00;98494.34;5051350;28;20592;-77
2023/01/01 03:52:00;;;;;;;20.27;14.90;;;;;;;10.44;100.00;98493.88;5051388;28;20218;-77
2023/01/01 03:54:36;;;;;;;18.47;13.17;;;;;;;10.57;100.00;98499.22;5051357;28;20317;-77
2023/01/01 03:57:08;;;;;;;15.93;10.87;;;;;;;10.42;100.00;98492.25;5051644;28;20598;-77
2023/01/01 03:59:43;;;;;;;13.27;8.83;;;;;;;10.49;100.00;98496.22;5051228;28;20204;-77
2023/01/01 04:02:13;;;;;;;12.43;8.70;;;;;;;10.59;100.00;98490.25;5051335;28;20318;-77
2023/01/01 04:04:40;;;;;;;12.77;7.57;;;;;;;10.59;100.00;98489.41;5051223;28;20238;-76
2023/01/01 04:07:07;;;;;;;8.57;6.57;;;;;;;10.69;99.73;98490.50;5051109;28;20306;-76
2023/01/01 04:09:35;;;;;;;6.90;5.23;;;;;;;10.82;98.83;98483.50;5050907;28;20204;-75
2023/01/01 04:12:03;;;;;;;5.57;4.50;;;;;;;10.94;97.71;98485.38;5051367;28;20203;-76
2023/01/01 04:14:33;;;;;;;6.50;4.80;;;;;;;11.03;97.49;98490.03;5051235;28;20233;-76
2023/01/01 04:17:01;;;;;;;5.77;4.37;;;;;;;11.04;96.82;98481.16;5051300;28;20206;-76
2023/01/01 04:19:28;;;;;;;5.27;3.70;;;;;;;10.93;98.03;98491.56;5050728;28;20285;-76
2023/01/01 04:21:55;;;;;;;5.33;3.57;;;;;;;10.86;98.71;98490.28;5051188;28;20210;-76
2023/01/01 04:24:22;;;;;;;5.77;3.90;;;;;;;10.82;99.16;98491.44;5051169;28;20228;-76
2023/01/01 04:26:48;;;;;;;8.80;4.50;;;;;;;10.81;99.43;98485.28;5051185;28;20296;-76
2023/01/01 04:29:15;;;;;;;5.57;4.17;;;;;;;10.83;99.68;98493.13;5050957;28;20393;-76
2023/01/01 04:31:42;;;;;;;6.53;4.33;;;;;;;11.01;98.53;98486.66;5051062;28;20219;-76
2023/01/01 04:34:08;;;;;;;5.50;4.20;;;;;;;11.30;95.63;98472.31;5053346;28;20598;-76
2023/01/01 04:36:36;;;;;;;7.50;4.00;;;;;;;11.27;95.31;98475.19;5055311;28;20211;-76
2023/01/01 04:39:03;;;;;;;6.70;3.73;;;;;;;11.44;94.10;98461.69;5054932;28;20208;-76
2023/01/01 04:41:30;;;;;;;4.70;3.13;;;;;;;11.45;93.09;98456.31;5055147;28;20215;-76
2023/01/01 04:43:57;;;;;;;5.20;3.50;;;;;;;11.50;92.97;98453.34;5054869;28;20230;-76
2023/01/01 04:46:24;;;;;;;5.97;3.60;;;;;;;11.53;92.43;98453.09;5054886;28;20224;-76
2023/01/01 04:48:51;;;;;;;5.13;3.53;;;;;;;11.56;92.15;98459.03;5054583;28;20208;-76
2023/01/01 04:51:19;;;;;;;7.40;3.67;;;;;;;11.62;91.94;98457.84;5054905;28;20219;-76
2023/01/01 04:53:47;;;;;;;5.40;3.33;;;;;;;11.72;91.07;98453.59;5055036;28;20509;-76
2023/01/01 04:56:18;;;;;;;4.27;3.27;;;;;;;11.63;91.07;98459.53;5054954;28;20209;-76
2023/01/01 04:58:45;;;;;;;5.60;3.30;;;;;;;11.61;91.33;98464.09;5054481;28;20214;-76
2023/01/01 05:01:16;;;;;;;5.23;3.00;;;;;;;11.58;91.49;98466.88;5054410;28;20214;-76
2023/01/01 05:03:43;;;;;;;6.53;3.50;;;;;;;11.55;91.71;98477.69;5054522;28;20289;-76
2023/01/01 05:06:12;;;;;;;4.57;3.00;;;;;;;11.53;91.67;98472.50;5054768;28;20209;-77
2023/01/01 05:08:40;;;;;;;6.07;3.53;;;;;;;11.51;91.74;98468.25;5054530;28;20206;-76
2023/01/01 05:11:11;;;;;;;5.93;3.10;;;;;;;11.50;91.93;98475.34;5054372;28;20210;-76
2023/01/01 05:13:39;;;;;;;4.70;3.20;;;;;;;11.53;91.96;98479.59;5054498;28;20234;-76
2023/01/01 05:16:07;;;;;;;3.30;2.87;;;;;;;11.58;91.92;98483.66;5054527;28;20208;-76
2023/01/01 05:18:34;;;;;;;5.27;2.83;;;;;;;11.63;91.58;98483.34;5054602;28;20217;-75
2023/01/01 05:21:01;;;;;;;3.63;2.90;;;;;;;11.55;91.87;98483.81;5053935;28;20296;-76
2023/01/01 05:23:27;;;;;;;3.57;2.43;;;;;;;11.49;91.94;98489.53;5054153;28;20233;-76
2023/01/01 05:25:54;;;;;;;5.77;3.10;;;;;;;11.43;92.48;98495.22;5054669;28;20208;-76
2023/01/01 05:28:23;;;;;;;5.93;3.30;;;;;;;11.40;93.16;98500.75;5054016;28;20207;-76
2023/01/01 05:30:49;;;;;;;4.50;3.03;;;;;;;11.35;92.98;98501.97;5054080;28;20206;-76
2023/01/01 05:33:16;;;;;;;3.63;2.80;;;;;;;11.30;93.77;98501.44;5054201;28;20206;-76
2023/01/01 05:35:42;;;;;;;4.27;2.97;;;;;;;11.31;93.66;98505.81;5054423;28;20298;-76
2023/01/01 05:38:09;;;;;;;4.63;2.87;;;;;;;11.34;93.62;98501.16;5054046;28;20211;-76
2023/01/01 05:40:38;;;;;;;4.10;3.03;;;;;;;11.25;94.42;98501.75;5053720;28;20207;-76
2023/01/01 05:43:05;;;;;;;6.27;3.67;;;;;;;11.30;94.22;98512.03;5053916;28;20232;-76
2023/01/01 05:45:32;;;;;;;3.97;2.90;;;;;;;11.34;93.75;98505.59;5053432;28;20212;-76
2023/01/01 05:47:59;;;;;;;4.03;3.00;;;;;;;11.36;93.31;98501.03;5053874;28;20280;-76
2023/01/01 05:50:25;;;;;;;3.87;2.80;;;;;;;11.31;93.25;98505.81;5053441;28;20216;-76
2023/01/01 05:52:52;;;;;;;3.90;2.57;;;;;;;11.27;93.81;98509.59;5053777;28;20219;-76
2023/01/01 05:55:18;;;;;;;4.57;2.80;;;;;;;11.34;93.56;98508.22;5053501;28;20319;-76
2023/01/01 05:57:45;;;;;;;3.53;2.53;;;;;;;11.45;92.63;98505.72;5053890;28;20215;-76
2023/01/01 06:00:12;;;;;;;3.27;2.53;;;;;;;11.48;92.39;98508.16;5053323;28;20217;-76
2023/01/01 06:02:40;;;;;;;4.13;2.83;;;;;;;11.52;92.01;98504.38;5053380;28;20720;-76
2023/01/01 06:05:07;;;;;;;4.70;2.90;;;;;;;11.53;91.83;98511.34;5093395;22;20235;-76
2023/01/01 06:07:33;;;;;;;5.80;3.13;;;;;;;11.53;91.23;98511.34;5093633;28;20216;-76
2023/01/01 06:10:00;;;;;;;4.17;2.97;;;;;;;11.50;91.72;98506.28;5093166;28;20210;-76
2023/01/01 06:12:26;;;;;;;3.93;2.83;;;;;;;11.44;91.72;98511.97;5093614;28;20206;-76
2023/01/01 06:14:53;;;;;;;2.93;2.57;;;;;;;11.46;91.20;98520.66;5093543;28;20581;-75
2023/01/01 06:17:19;;;;;;;4.17;2.63;;;;;;;11.38;92.27;98533.56;5093592;28;20216;-76
2023/01/01 06:19:47;;;;;;;3.87;2.80;;;;;;;11.30;92.67;98525.25;5093185;28;20222;-76
2023/01/01 06:22:13;;;;;;;4.73;2.87;;;;;;;11.24;93.22;98531.81;5093313;28;20228;-76
2023/01/01 06:24:40;;;;;;;4.80;2.83;;;;;;;11.18;93.44;98541.97;5093335;28;20230;-76
2023/01/01 06:27:06;;;;;;;4.63;3.13;;;;;;;11.09;94.35;98542.53;5093229;28;20210;-76
2023/01/01 06:29:33;;;;;;;5.17;2.90;;;;;;;11.00;95.16;98543.16;5093056;28;20207;-76
2023/01/01 06:31:59;;;;;;;4.37;3.37;;;;;;;11.10;94.84;98546.88;5093203;28;20207;-76
2023/01/01 06:34:26;;;;;;;5.13;2.87;;;;;;;11.00;95.03;98549.25;5092994;28;20238;-76
2023/01/01 06:36:54;;;;;;;3.93;2.93;;;;;;;10.94;95.88;98546.19;5093082;28;20325;-76
2023/01/01 06:39:20;;;;;;;3.60;2.77;;;;;;;10.91;96.36;98543.72;5092904;28;20211;-77
2023/01/01 06:41:46;;;;;;;4.73;3.37;;;;;;;11.00;96.05;98559.03;5093287;28;20211;-76
2023/01/01 06:44:13;;;;;;;4.80;3.27;;;;;;;11.05;95.70;98547.19;5093120;28;20240;-76
2023/01/01 06:46:39;;;;;;;5.30;3.13;;;;;;;11.21;94.34;98552.31;5093112;28;20202;-76
2023/01/01 06:49:10;;;;;;;4.37;3.00;;;;;;;11.24;93.83;98547.69;5093256;28;20218;-76
2023/01/01 06:51:39;;;;;;;4.67;2.90;;;;;;;11.25;93.52;98540.59;5092865;28;20302;-76
2023/01/01 06:54:08;;;;;;;3.93;3.03;;;;;;;11.28;93.31;98537.75;5092790;28;20225;-76
2023/01/01 06:56:35;;;;;;;4.30;2.93;;;;;;;11.30;92.71;98539.34;5091962;28;20220;-76
2023/01/01 06:59:02;;;;;;;5.37;3.33;;;;;;;11.27;93.10;98539.56;5092707;28;20206;-76
2023/01/01 07:01:30;;;;;;;4.37;2.90;;;;;;;11.28;92.56;98528.03;5092604;28;20217;-76
2023/01/01 07:03:58;;;;;;;4.60;2.80;;;;;;;11.34;92.35;98540.00;5092581;28;20234;-76
2023/01/01 07:06:26;;;;;;;3.57;2.90;;;;;;;11.32;92.00;98539.25;5093046;28;20220;-76
2023/01/01 07:08:52;;;;;;;3.23;2.70;;;;;;;11.36;91.70;98544.22;5092541;28;20341;-76
2023/01/01 07:11:20;;;;;;;3.63;2.90;;;;;;;11.38;91.86;98544.13;5092725;28;20220;-76
2023/01/01 07:13:47;;;;;;;4.37;2.60;;;;;;;11.44;91.40;98536.63;5092385;28;20227;-75
2023/01/01 07:16:14;;;;;;;4.13;2.83;;;;;;;11.51;90.29;98545.03;5092286;28;20213;-76
2023/01/01 07:18:41;;;;;;;4.53;2.93;;;;;;;11.57;89.64;98536.69;5092187;28;20675;-76
2023/01/01 07:21:26;;;;;;;3.50;2.50;;;;;;;11.52;90.19;98536.13;5092206;28;20212;-75
2023/01/01 07:23:55;;;;;;;5.33;2.80;;;;;;;11.38;90.78;98538.84;5092229;28;20237;-75
2023/01/01 07:26:23;;;;;;;4.07;3.10;;;;;;;11.38;90.53;98538.84;5092359;28;20226;-76
2023/01/01 07:28:49;;;;;;;3.60;2.73;;;;;;;11.45;90.45;98545.44;5091301;28;20214;-76
2023/01/01 07:31:16;;;;;;;4.40;2.70;;;;;;;11.46;90.56;98547.13;5091725;28;20284;-75
2023/01/01 07:33:42;;;;;;;3.30;2.83;;;;;;;11.54;89.73;98544.81;5092025;28;20203;-76
2023/01/01 07:36:09;;;;;;;3.53;2.73;;;;;;;11.59;89.49;98554.19;5091971;28;20218;-76
2023/01/01 07:38:35;;;;;;;5.50;3.10;;;;;;;11.56;89.49;98551.69;5091866;28;20212;-76
2023/01/01 07:41:02;;;;;;;4.87;2.83;;;;;;;11.63;89.27;98560.13;5091223;28;20235;-75
2023/01/01 07:43:30;;;;;;;4.00;2.90;;;;;;;11.62;88.99;98566.38;5091639;28;20257;-75
2023/01/01 07:45:58;;;;;;;4.40;2.50;;;;;;;11.57;89.15;98565.78;5091691;28;20219;-76
2023/01/01 07:48:26;;;;;;;4.00;2.50;;;;;;;11.48;89.67;98582.28;5091881;28;20210;-76
2023/01/01 07:50:53;;;;;;;3.93;2.60;;;;;;;11.43;90.35;98587.88;5091052;28;20208;-75
2023/01/01 07:53:19;;;;;;;4.87;2.77;;;;;;;11.34;91.11;98585.84;5092084;28;20209;-76
2023/01/01 07:55:46;;;;;;;4.70;3.13;;;;;;;11.36;90.68;98585.72;5091787;28;20226;-78
2023/01/01 07:58:13;;;;;;;3.17;2.47;;;;;;;11.38;90.86;98597.06;5091591;28;20217;-78
2023/01/01 08:00:41;;;;;;;6.63;2.80;;;;;;;11.36;91.06;98593.66;5090263;28;20218;-76
2023/01/01 08:03:07;;;;;;;3.63;3.00;;;;;;;11.37;91.12;98598.03;5091483;28;20229;-77
2023/01/01 08:05:34;;;;;;;3.40;3.00;;;;;;;11.36;91.34;98609.53;5091552;28;20235;-78
2023/01/01 08:08:02;;;;;;;5.20;2.73;;;;;;;11.27;91.71;98611.00;5091392;28;20238;-75
2023/01/01 08:10:29;;;;;;;3.67;2.97;;;;;;;11.24;92.06;98613.84;5090869;28;20207;-75
2023/01/01 08:12:59;;;;;;;3.57;2.60;;;;;;;11.20;92.51;98619.44;5091290;28;20240;-76
2023/01/01 08:15:26;;;;;;;5.67;2.73;;;;;;;11.10;93.11;98623.59;5091341;28;20257;-76
2023/01/01 08:17:57;;;;;;;3.20;2.73;;;;;;;11.01;93.86;98625.03;5091688;28;20208;-76
2023/01/01 08:20:24;;;;;;;4.10;2.63;;;;;;;11.03;94.27;98632.88;5090897;28;20256;-76
2023/01/01 08:22:50;;;;;;;5.73;2.80;;;;;;;10.98;94.69;98629.66;5091297;28;20292;-76
2023/01/01 08:25:17;;;;;;;4.13;2.80;;;;;;;10.93;94.61;98629.94;5091272;28;20231;-76
2023/01/01 08:27:43;;;;;;;3.20;2.60;;;;;;;10.96;94.95;98631.56;5091373;28;20222;-77
2023/01/01 08:30:12;;;;;;;3.67;2.83;;;;;;;10.96;94.68;98626.28;5090760;28;20208;-76
2023/01/01 08:32:38;;;;;;;5.93;2.90;;;;;;;10.99;94.39;98626.06;5091469;28;20210;-78
2023/01/01 08:35:07;;;;;;;3.73;2.90;;;;;;;10.98;94.37;98625.22;5091339;28;20229;-75
2023/01/01 08:37:34;;;;;;;3.87;2.80;;;;;;;11.02;94.50;98626.72;5091201;28;20600;-76
2023/01/01 08:40:00;;;;;;;4.67;2.80;;;;;;;11.08;93.93;98625.50;5090886;28;20218;-77
2023/01/01 08:42:27;;;;;;;4.20;3.10;;;;;;;11.14;93.96;98625.09;5091580;28;20218;-79
2023/01/01 08:44:53;;;;;;;4.10;3.17;;;;;;;11.16;93.82;98631.13;5089795;28;20449;-77
2023/01/01 08:47:22;;;;;;;4.93;2.63;;;;;;;11.21;93.24;98637.84;5089077;28;20218;-77
2023/01/01 08:49:49;;;;;;;4.47;2.93;;;;;;;11.22;93.35;98636.91;5089570;28;20725;-78
2023/01/01 08:52:17;;;;;;;3.40;2.20;;;;;;;11.31;92.45;98638.94;5090035;28;20214;-77
2023/01/01 08:54:44;;;;;;;4.00;2.73;;;;;;;11.48;91.47;98637.84;5086028;28;20221;-78
2023/01/01 08:57:11;;;;;;;4.30;2.60;;;;;;;11.51;91.02;98640.31;5085341;28;20305;-78
2023/01/01 08:59:38;;;;;;;5.37;2.87;;;;;;;11.59;90.73;98641.56;5089601;28;20691;-78
2023/01/01 09:02:05;;;;;;;5.07;2.63;;;;;;;11.75;90.06;98644.88;5090177;28;20208;-78
2023/01/01 09:04:31;;;;;;;3.40;2.30;;;;;;;11.92;87.96;98639.31;5090917;28;20245;-78
2023/01/01 09:06:58;;;;;;;4.13;2.70;;;;;;;11.92;88.59;98638.50;5090299;28;20209;-78
2023/01/01 09:09:26;;;;;;;3.97;2.70;;;;;;;11.90;89.27;98649.19;5090607;28;20207;-78
2023/01/01 09:11:54;;;;;;;5.10;3.37;;;;;;;11.86;90.32;98657.44;5091537;28;20228;-78
2023/01/01 09:14:22;;;;;;;5.63;3.77;;;;;;;11.82;91.66;98658.56;5091097;28;20243;-78
2023/01/01 09:16:48;;;;;;;5.97;4.10;;;;;;;11.85;92.07;98658.34;5090758;28;20213;-77
2023/01/01 09:19:15;;;;;;;5.97;4.03;;;;;;;11.82;92.17;98661.22;5088505;28;20212;-77
2023/01/01 09:21:42;;;;;;;7.67;4.83;;;;;;;11.88;91.05;98655.53;5093422;28;20693;-77
2023/01/01 09:24:08;;;;;;;5.50;4.10;;;;;;;11.84;90.18;98651.38;5094527;28;20236;-77
2023/01/01 09:26:36;;;;;;;6.63;4.73;;;;;;;11.95;90.52;98651.50;5091149;28;20212;-77
2023/01/01 09:29:03;;;;;;;6.20;5.10;;;;;;;11.91;90.33;98650.00;5089907;28;20686;-77
2023/01/01 09:31:29;;;;;;;7.00;5.37;;;;;;;11.91;90.45;98652.66;5091931;28;20209;-77
2023/01/01 09:33:56;;;;;;;9.00;5.37;;;;;;;11.90;90.75;98654.47;5093146;28;20233;-77
2023/01/01 09:36:28;;;;;;;7.77;5.20;;;;;;;11.91;90.05;98650.88;5086158;28;20205;-77
2023/01/01 09:38:56;;;;;;;9.47;5.27;;;;;;;11.99;90.24;98653.03;5087318;28;20218;-78
2023/01/01 09:41:32;;;;;;;7.47;5.27;;;;;;;12.00;89.89;98654.72;5092875;28;20213;-77
2023/01/01 09:44:06;;;;;;;7.77;5.90;;;;;;;12.04;91.14;98659.69;5090733;28;20240;-77
2023/01/01 09:46:35;;;;;;;6.70;4.30;;;;;;;12.09;90.71;98664.69;5091345;28;20214;-77
2023/01/01 09:49:10;;;;;;;7.80;4.63;;;;;;;12.25;90.74;98668.00;5093217;28;20234;-77
2023/01/01 09:51:39;;;;;;;8.23;5.83;;;;;;;12.46;93.01;98677.19;5092117;28;20588;-77
2023/01/01 09:54:14;;;;;;;8.37;6.00;;;;;;;12.50;94.83;98681.31;5092133;28;20234;-77
2023/01/01 09:56:43;;;;;;;9.93;7.63;;;;;;;12.52;95.63;98690.84;5093372;28;20230;-77
2023/01/01 09:59:11;;;;;;;11.77;8.83;;;;;;;12.59;95.67;98686.81;5091591;28;20568;-77
2023/01/01 10:01:47;;;;;;;12.23;10.03;;;;;;;12.76;97.21;98686.53;5091664;28;20208;-77
2023/01/01 10:04:28;;;;;;;12.83;8.73;;;;;;;12.90;96.59;98681.09;5093368;28;20241;-77
2023/01/01 10:07:03;;;;;;;13.27;9.60;;;;;;;12.99;95.46;98674.34;5092771;28;20206;-77
2023/01/01 10:09:43;;;;;;;12.20;9.27;;;;;;;13.11;93.44;98668.16;5090341;28;20676;-77
2023/01/01 10:12:16;;;;;;;14.27;9.93;;;;;;;13.09;93.36;98665.59;5093155;28;20677;-77
2023/01/01 10:14:48;;;;;;;11.40;9.07;;;;;;;13.06;92.73;98659.66;5092501;28;20223;-77
2023/01/01 10:17:18;;;;;;;10.33;7.70;;;;;;;13.09;93.13;98662.13;5090371;28;20218;-75
2023/01/01 10:19:50;;;;;;;11.50;8.80;;;;;;;13.02;93.67;98658.22;5092558;28;20584;-75
2023/01/01 10:22:20;;;;;;;12.13;9.00;;;;;;;13.22;92.06;98649.66;5093507;28;20206;-74
2023/01/01 10:24:54;;;;;;;10.57;7.80;;;;;;;13.28;89.77;98634.16;5093294;28;20246;-75
2023/01/01 10:27:30;;;;;;;10.57;7.90;;;;;;;13.29;89.39;98640.31;5093142;28;20587;-75
2023/01/01 10:30:01;;;;;;;13.50;8.80;;;;;;;13.18;90.14;98648.19;5092300;28;20217;-75
2023/01/01 10:32:31;;;;;;;11.23;8.37;;;;;;;13.23;90.63;98651.38;5092915;28;20210;-75
2023/01/01 10:34:58;;;;;;;9.63;8.20;;;;;;;13.30;91.79;98653.47;5092961;28;20222;-75
2023/01/01 10:37:28;;;;;;;11.50;8.47;;;;;;;13.48;91.57;98646.84;5093009;28;20209;-75
2023/01/01 10:39:54;;;;;;;13.27;9.00;;;;;;;13.59;90.98;98654.00;5091982;28;20207;-75
2023/01/01 10:42:21;;;;;;;10.77;8.10;;;;;;;13.60;90.05;98642.44;5092578;28;20693;-75
2023/01/01 10:44:51;;;;;;;9.90;7.20;;;;;;;13.47;88.74;98645.16;5092411;28;20254;-75
2023/01/01 10:47:25;;;;;;;10.37;7.80;;;;;;;13.46;87.91;98640.78;5092745;28;20218;-75
2023/01/01 10:49:56;;;;;;;8.87;7.40;;;;;;;13.46;87.30;98639.94;5092015;28;20257;-75
2023/01/01 10:52:27;;;;;;;10.20;7.73;;;;;;;13.48;86.68;98630.03;5092301;28;20207;-74
2023/01/01 10:54:54;;;;;;;11.30;8.07;;;;;;;13.53;84.89;98630.56;5092654;28;20219;-77
2023/01/01 10:57:29;;;;;;;9.23;7.63;;;;;;;13.56;85.16;98630.34;5092636;28;20210;-76
2023/01/01 11:00:20;;;;;;;8.73;6.87;;;;;;;13.59;83.75;98627.47;5091963;28;20680;-84
2023/01/01 11:02:48;;;;;;;9.77;6.40;;;;;;;13.65;84.37;98627.00;5092601;28;20211;-76
2023/01/01 11:05:18;;;;;;;8.67;6.80;;;;;;;13.70;85.21;98630.19;5092336;28;20238;-76
2023/01/01 11:07:45;;;;;;;10.10;6.53;;;;;;;13.74;83.81;98621.03;5092436;28;20210;-76
2023/01/01 11:10:17;;;;;;;7.33;5.70;;;;;;;13.81;82.38;98614.28;5091858;28;20574;-78
2023/01/01 11:12:44;;;;;;;8.10;5.77;;;;;;;13.85;81.89;98602.44;5091494;28;20622;-77
2023/01/01 11:15:22;;;;;;;8.60;6.57;;;;;;;13.94;81.88;98591.16;5088662;28;20233;-77
2023/01/01 11:17:50;;;;;;;8.40;5.47;;;;;;;13.98;81.16;98597.91;5089792;28;20217;-76
2023/01/01 11:20:19;;;;;;;9.00;5.87;;;;;;;14.09;82.39;98600.59;5091486;28;20211;-76
2023/01/01 11:22:49;;;;;;;10.27;6.10;;;;;;;14.17;84.56;98612.34;5090610;28;20212;-77
2023/01/01 11:25:24;;;;;;;7.37;5.07;;;;;;;14.16;82.93;98596.50;5090458;28;20234;-79
2023/01/01 11:27:51;;;;;;;8.13;5.60;;;;;;;14.15;81.27;98598.34;5092415;28;20209;-90
2023/01/01 11:30:22;;;;;;;7.00;5.60;;;;;;;14.17;78.77;98576.97;5092339;28;20743;-93
2023/01/01 11:32:52;;;;;;;7.90;5.00;;;;;;;14.15;79.23;98577.06;5092182;28;20214;-84
2023/01/01 11:35:22;;;;;;;6.37;4.93;;;;;;;14.17;79.15;98567.16;5092061;28;20225;-77
2023/01/01 11:37:51;;;;;;;6.30;4.17;;;;;;;14.28;78.39;98569.88;5092339;28;20202;-77